Terminal Aerodrome Forecast
Issued by NWS Blacksburg, VA

Current Version | Previous Version | Graphics & Text | Print | Product List | Glossary On
Versions: 1 2 3 4 5 6 7 8 9 10 11 12 13 14 15 16 17 18 19 20 21 22 23 24 25 26 27 28 29 30 31 32 33 34 35 36 37 38 39 40 41 42 43 44 45 46
930
FTUS41 KRNK 272340
TAFBLF
TAF
KBLF 272340Z 2800/2824 27008KT P6SM -SHRA VCTS BKN070CB OVC140
     FM280300 26004KT P6SM VCTS BKN070CB OVC200
     FM280600 24004KT P6SM BKN130 OVC250
     FM281000 24004KT 5SM BR SCT020
     FM281300 25007KT P6SM BKN025
     FM281500 25008G16KT P6SM BKN035
     FM281800 26012KT P6SM VCTS BKN040CB=

USA.gov is the U.S. government's official web portal to all federal, state and local government web resources and services.